createdAt,value
2023-09-23T00:01:46.828Z,22.02
2023-09-23T00:06:50.338Z,18.77
2023-09-23T00:11:52.418Z,18.05
2023-09-23T00:16:54.505Z,18.10
2023-09-23T00:21:57.044Z,16.67
2023-09-23T00:27:00.591Z,17.08
2023-09-23T00:32:03.860Z,15.82
2023-09-23T00:37:07.889Z,14.98
2023-09-23T00:42:13.392Z,15.57
2023-09-23T00:47:16.563Z,15.40
2023-09-23T00:52:18.902Z,14.40
2023-09-23T00:57:21.375Z,13.05
2023-09-23T01:02:24.484Z,13.48
2023-09-23T01:07:28.326Z,13.88
2023-09-23T01:12:31.467Z,12.15
2023-09-23T01:17:33.653Z,12.52
2023-09-23T01:22:37.274Z,12.05
2023-09-23T01:27:40.212Z,12.05
2023-09-23T01:32:48.220Z,11.85
2023-09-23T01:37:51.374Z,11.07
2023-09-23T01:42:54.578Z,10.68
2023-09-23T01:48:00.205Z,10.00
2023-09-23T01:53:03.021Z,9.80
2023-09-23T01:58:05.288Z,9.48
2023-09-23T02:03:08.144Z,9.15
2023-09-23T02:08:11.297Z,9.07
2023-09-23T02:13:13.741Z,8.23
2023-09-23T02:18:15.962Z,7.18
2023-09-23T02:23:19.175Z,7.88
2023-09-23T02:28:21.486Z,7.35
2023-09-23T02:33:27.169Z,7.40
2023-09-23T02:38:29.414Z,6.70
2023-09-23T02:43:31.710Z,7.50
2023-09-23T02:48:36.881Z,7.07
2023-09-23T02:53:38.978Z,6.05
2023-09-23T02:58:41.513Z,6.15
2023-09-23T03:03:44.724Z,7.03
2023-09-23T03:08:55.137Z,6.63
2023-09-23T03:13:57.431Z,6.80
2023-09-23T03:19:12.239Z,6.35
2023-09-23T03:24:14.701Z,6.72
2023-09-23T03:29:19.505Z,6.32
2023-09-23T03:34:22.756Z,6.47
2023-09-23T03:39:26.009Z,6.20
2023-09-23T03:44:28.120Z,6.40
2023-09-23T03:49:32.171Z,5.47
2023-09-23T03:54:34.486Z,6.20
2023-09-23T03:59:37.176Z,5.88
2023-09-23T04:04:39.411Z,6.45
2023-09-23T04:09:41.874Z,6.68
2023-09-23T04:14:44.115Z,6.00
2023-09-23T04:19:46.203Z,6.40
2023-09-23T04:24:48.348Z,6.50
2023-09-23T04:29:51.528Z,6.10
2023-09-23T04:34:53.790Z,6.35
2023-09-23T04:39:56.294Z,6.38
2023-09-23T04:44:59.291Z,5.47
2023-09-23T04:50:01.677Z,5.78
2023-09-23T04:55:04.195Z,5.72
2023-09-23T05:00:10.266Z,5.50
2023-09-23T05:05:13.445Z,5.70
2023-09-23T05:10:16.239Z,5.50
2023-09-23T05:15:18.442Z,5.80
2023-09-23T05:20:21.480Z,5.72
2023-09-23T05:25:25.753Z,6.10
2023-09-23T05:30:28.485Z,5.40
2023-09-23T05:35:30.628Z,5.82
2023-09-23T05:40:37.440Z,4.88
2023-09-23T05:45:39.561Z,5.30
2023-09-23T05:50:41.618Z,5.88
2023-09-23T05:55:44.994Z,5.82
2023-09-23T06:00:48.033Z,5.63
2023-09-23T06:05:50.538Z,6.10
2023-09-23T06:10:53.492Z,5.22
2023-09-23T06:16:04.515Z,5.80
2023-09-23T06:21:07.719Z,4.88
2023-09-23T06:26:11.289Z,5.70
2023-09-23T06:31:13.621Z,5.82
2023-09-23T06:36:15.845Z,6.05
2023-09-23T06:41:18.331Z,6.20
2023-09-23T06:46:21.156Z,6.53
2023-09-23T06:51:23.297Z,6.55
2023-09-23T06:56:25.489Z,6.90
2023-09-23T07:01:28.246Z,7.50
2023-09-23T07:06:30.395Z,6.18
2023-09-23T07:11:32.894Z,6.60
2023-09-23T07:16:35.110Z,6.53
2023-09-23T07:21:37.475Z,7.25
2023-09-23T07:26:39.838Z,6.72
2023-09-23T07:31:41.924Z,6.88
2023-09-23T07:36:44.272Z,6.85
2023-09-23T07:41:46.749Z,7.40
2023-09-23T07:46:49.248Z,7.00
2023-09-23T07:51:51.815Z,6.85
2023-09-23T07:56:54.306Z,7.40
2023-09-23T08:01:56.590Z,7.47
2023-09-23T08:06:58.948Z,7.20
2023-09-23T08:12:01.252Z,7.25
2023-09-23T08:17:03.637Z,6.25
2023-09-23T08:22:06.037Z,7.45
2023-09-23T08:27:14.809Z,7.35
2023-09-23T08:32:17.284Z,7.45
2023-09-23T08:37:20.499Z,6.05
2023-09-23T08:42:25.572Z,5.70
2023-09-23T08:47:29.314Z,5.43
2023-09-23T08:52:33.317Z,6.20
2023-09-23T08:57:36.149Z,5.50
2023-09-23T09:02:39.623Z,5.53
2023-09-23T09:07:42.049Z,5.20
2023-09-23T09:12:49.078Z,5.82
2023-09-23T09:17:55.203Z,4.35
2023-09-23T09:22:58.463Z,4.05
2023-09-23T09:28:01.517Z,4.15
2023-09-23T09:33:10.983Z,4.32
2023-09-23T09:38:18.269Z,4.10
2023-09-23T09:43:22.054Z,4.53
2023-09-23T09:48:29.378Z,4.57
2023-09-23T09:53:31.816Z,3.88
2023-09-23T09:58:41.971Z,3.53
2023-09-23T10:03:46.945Z,3.23
2023-09-23T10:08:50.238Z,3.28
2023-09-23T10:13:53.004Z,3.85
2023-09-23T10:18:58.237Z,3.80
2023-09-23T10:24:04.244Z,3.85
2023-09-23T10:29:06.917Z,3.88
2023-09-23T10:34:47.897Z,4.65
2023-09-23T10:39:50.202Z,3.60
2023-09-23T10:44:59.979Z,3.42
2023-09-23T10:50:04.932Z,2.92
2023-09-23T10:55:10.823Z,2.65
2023-09-23T11:00:19.609Z,2.53
2023-09-23T11:05:23.415Z,2.10
2023-09-23T11:10:28.376Z,2.17
2023-09-23T11:15:31.738Z,2.40
2023-09-23T11:20:35.916Z,2.38
2023-09-23T11:25:42.716Z,2.03
2023-09-23T11:30:44.872Z,2.20
2023-09-23T11:35:47.071Z,1.52
2023-09-23T11:40:49.672Z,1.52
2023-09-23T11:45:51.852Z,1.30
2023-09-23T11:50:54.853Z,1.80
2023-09-23T11:55:56.974Z,2.00
2023-09-23T12:00:59.419Z,1.10
2023-09-23T12:06:01.534Z,1.20
2023-09-23T12:11:03.866Z,1.40
2023-09-23T12:16:06.093Z,1.23
2023-09-23T12:21:08.181Z,1.20
2023-09-23T12:26:13.396Z,1.60
2023-09-23T12:31:15.580Z,1.80
2023-09-23T12:36:18.328Z,1.33
2023-09-23T12:41:20.439Z,1.50
2023-09-23T12:46:22.839Z,1.67
2023-09-23T12:51:24.932Z,1.30
2023-09-23T12:56:29.491Z,1.40
2023-09-23T13:01:32.200Z,1.20
2023-09-23T13:06:34.814Z,1.20
2023-09-23T13:11:38.572Z,1.30
2023-09-23T13:16:46.855Z,1.20
2023-09-23T13:21:50.495Z,1.20
2023-09-23T13:26:52.792Z,1.40
2023-09-23T13:31:55.023Z,1.75
2023-09-23T13:36:57.356Z,1.52
2023-09-23T13:41:59.913Z,1.50
2023-09-23T13:47:02.062Z,1.38
2023-09-23T13:52:05.112Z,1.30
2023-09-23T13:57:10.436Z,1.30
2023-09-23T14:02:19.299Z,1.40
2023-09-23T14:07:21.534Z,1.10
2023-09-23T14:12:23.748Z,1.40
2023-09-23T14:17:27.332Z,1.15
2023-09-23T14:22:29.870Z,1.88
2023-09-23T14:27:32.732Z,1.23
2023-09-23T14:32:36.120Z,1.10
2023-09-23T14:37:39.564Z,1.30
2023-09-23T14:42:42.028Z,1.00
2023-09-23T14:47:44.459Z,1.10
2023-09-23T14:52:48.236Z,1.40
2023-09-23T14:57:50.499Z,1.13
2023-09-23T15:02:53.002Z,1.30
2023-09-23T15:07:55.602Z,1.20
2023-09-23T15:12:57.892Z,1.10
2023-09-23T15:18:00.056Z,1.10
2023-09-23T15:23:05.007Z,0.90
2023-09-23T15:28:09.001Z,0.98
2023-09-23T15:33:11.961Z,0.70
2023-09-23T15:38:14.334Z,0.93
2023-09-23T15:43:17.472Z,0.82
2023-09-23T15:48:19.660Z,1.10
2023-09-23T15:53:22.126Z,1.73
2023-09-23T15:58:25.249Z,1.30
2023-09-23T16:03:27.636Z,1.58
2023-09-23T16:08:30.159Z,1.20
2023-09-23T16:13:32.798Z,1.13
2023-09-23T16:18:35.058Z,1.20
2023-09-23T16:23:37.520Z,0.93
2023-09-23T16:28:39.965Z,1.25
2023-09-23T16:33:42.075Z,1.00
2023-09-23T16:38:47.463Z,1.02
2023-09-23T16:43:49.780Z,2.03
2023-09-23T16:48:52.064Z,1.20
2023-09-23T16:53:54.257Z,1.00
2023-09-23T16:58:56.517Z,1.27
2023-09-23T17:03:58.832Z,1.30
2023-09-23T17:09:03.744Z,1.45
2023-09-23T17:14:06.743Z,1.15
2023-09-23T17:19:08.893Z,1.10
2023-09-23T17:24:11.017Z,1.00
2023-09-23T17:29:13.262Z,1.00
2023-09-23T17:34:15.495Z,1.10
2023-09-23T17:39:18.093Z,1.10
2023-09-23T17:44:20.297Z,1.27
2023-09-23T17:49:22.541Z,1.15
2023-09-23T17:54:25.402Z,1.20
2023-09-23T17:59:27.703Z,1.40
2023-09-23T18:04:30.025Z,1.85
2023-09-23T18:09:32.280Z,1.48
2023-09-23T18:14:34.628Z,1.70
2023-09-23T18:19:38.017Z,1.73
2023-09-23T18:24:40.437Z,2.03
2023-09-23T18:29:42.983Z,2.40
2023-09-23T18:34:46.351Z,2.20
2023-09-23T18:39:48.841Z,2.35
2023-09-23T18:44:52.393Z,1.80
2023-09-23T18:49:54.591Z,2.00
2023-09-23T18:54:58.583Z,1.85
2023-09-23T19:00:03.353Z,1.90
2023-09-23T19:05:07.125Z,1.98
2023-09-23T19:10:11.956Z,1.80
2023-09-23T19:15:17.069Z,1.80
2023-09-23T19:20:19.616Z,1.98
2023-09-23T19:25:21.836Z,2.00
2023-09-23T19:30:24.101Z,2.15
2023-09-23T19:35:27.456Z,1.98
2023-09-23T19:40:29.710Z,2.20
2023-09-23T19:45:34.616Z,2.08
2023-09-23T19:50:37.093Z,2.50
2023-09-23T19:55:39.307Z,2.08
2023-09-23T20:00:41.554Z,2.95
2023-09-23T20:05:47.690Z,3.10
2023-09-23T20:10:50.965Z,3.65
2023-09-23T20:15:53.263Z,3.95
2023-09-23T20:20:55.530Z,3.47
2023-09-23T20:25:57.736Z,2.85
2023-09-23T20:31:01.187Z,3.30
2023-09-23T20:36:05.748Z,2.80
2023-09-23T20:41:08.256Z,3.00
2023-09-23T20:46:13.049Z,3.00
2023-09-23T20:51:17.429Z,3.53
2023-09-23T20:56:19.632Z,3.17
2023-09-23T21:01:23.111Z,3.00
2023-09-23T21:06:25.474Z,3.25
2023-09-23T21:11:27.725Z,3.72
2023-09-23T21:16:31.458Z,4.15
2023-09-23T21:21:33.666Z,3.88
2023-09-23T21:26:36.233Z,4.32
2023-09-23T21:31:39.132Z,4.30
2023-09-23T21:36:44.053Z,4.40
2023-09-23T21:41:46.419Z,4.60
2023-09-23T21:46:48.731Z,5.13
2023-09-23T21:51:51.003Z,4.70
2023-09-23T21:56:53.474Z,5.25
2023-09-23T22:01:56.140Z,4.63
2023-09-23T22:06:58.286Z,5.40
2023-09-23T22:12:00.405Z,4.57
2023-09-23T22:17:03.060Z,5.22
2023-09-23T22:22:05.115Z,4.72
2023-09-23T22:27:07.164Z,5.10
2023-09-23T22:32:09.263Z,5.55
2023-09-23T22:37:11.373Z,5.20
2023-09-23T22:42:14.261Z,5.10
2023-09-23T22:47:16.365Z,5.45
2023-09-23T22:52:18.792Z,5.43
2023-09-23T22:57:20.861Z,5.72
2023-09-23T23:02:22.940Z,6.38
2023-09-23T23:07:25.052Z,5.97
2023-09-23T23:12:27.148Z,6.22
2023-09-23T23:17:30.293Z,6.20
2023-09-23T23:22:32.423Z,6.30
2023-09-23T23:27:35.153Z,6.38
2023-09-23T23:32:37.264Z,5.75
2023-09-23T23:37:39.752Z,6.43
2023-09-23T23:42:41.963Z,6.32
2023-09-23T23:47:44.326Z,6.47
2023-09-23T23:52:48.368Z,6.90
2023-09-23T23:57:50.558Z,7.00
